createdAt,value
2023-02-18T00:07:24.193Z,3.20
2023-02-18T00:17:31.942Z,1.60
2023-02-18T00:27:39.041Z,1.90
2023-02-18T00:37:46.652Z,1.00
2023-02-18T00:47:53.602Z,1.50
2023-02-18T00:58:00.764Z,1.20
2023-02-18T01:08:06.600Z,0.70
2023-02-18T01:18:14.764Z,2.40
2023-02-18T01:28:21.809Z,1.70
2023-02-18T01:38:28.905Z,2.30
2023-02-18T01:48:39.525Z,2.40
2023-02-18T01:58:47.480Z,2.50
2023-02-18T02:08:59.732Z,1.20
2023-02-18T02:19:08.002Z,1.10
2023-02-18T02:29:50.834Z,1.30
2023-02-18T02:40:04.232Z,1.30
2023-02-18T02:50:16.050Z,1.80
2023-02-18T03:00:24.840Z,1.90
2023-02-18T03:10:40.364Z,1.40
2023-02-18T03:20:52.303Z,0.70
2023-02-18T03:31:02.268Z,0.90
2023-02-18T03:41:09.794Z,1.60
2023-02-18T03:51:15.936Z,0.70
2023-02-18T04:01:23.663Z,0.70
2023-02-18T04:11:30.934Z,1.20
2023-02-18T04:21:38.240Z,0.90
2023-02-18T04:31:45.537Z,1.00
2023-02-18T04:41:52.904Z,2.50
2023-02-18T04:52:00.699Z,1.30
2023-02-18T05:02:08.188Z,0.70
2023-02-18T05:12:15.658Z,0.70
2023-02-18T05:22:22.847Z,0.80
2023-02-18T05:32:29.975Z,0.50
2023-02-18T05:42:37.472Z,0.50
2023-02-18T05:52:44.607Z,0.90
2023-02-18T06:02:51.578Z,0.80
2023-02-18T06:13:00.298Z,1.20
2023-02-18T06:23:07.678Z,1.20
2023-02-18T06:33:15.417Z,1.10
2023-02-18T06:43:23.472Z,0.60
2023-02-18T06:53:30.546Z,1.30
2023-02-18T07:03:37.758Z,4.60
2023-02-18T07:13:44.785Z,1.90
2023-02-18T07:23:52.370Z,3.90
2023-02-18T07:33:59.993Z,4.50
2023-02-18T07:44:05.567Z,1.50
2023-02-18T07:54:10.048Z,4.80
2023-02-18T08:04:17.381Z,2.90
2023-02-18T08:14:24.857Z,2.00
2023-02-18T08:24:32.335Z,1.80
2023-02-18T08:34:39.591Z,2.80
2023-02-18T08:44:45.761Z,4.60
2023-02-18T08:54:52.936Z,5.60
2023-02-18T09:05:00.175Z,6.60
2023-02-18T09:15:06.448Z,4.20
2023-02-18T09:25:12.438Z,2.70
2023-02-18T09:35:18.361Z,3.80
2023-02-18T09:45:26.741Z,2.30
2023-02-18T09:55:38.983Z,5.30
2023-02-18T10:05:44.056Z,2.90
2023-02-18T10:15:53.039Z,3.00
2023-02-18T10:26:03.925Z,2.90
2023-02-18T10:36:28.942Z,4.50
2023-02-18T10:46:34.995Z,2.80
2023-02-18T10:56:43.927Z,2.50
2023-02-18T11:06:53.059Z,2.80
2023-02-18T11:17:10.590Z,1.50
2023-02-18T11:27:18.360Z,2.80
2023-02-18T11:37:28.477Z,2.20
2023-02-18T11:47:37.829Z,3.00
2023-02-18T11:57:48.921Z,10.20
2023-02-18T12:07:57.340Z,5.90
2023-02-18T12:18:26.820Z,4.50
2023-02-18T12:38:46.436Z,2.30
2023-02-18T12:49:02.166Z,2.50
2023-02-18T12:59:07.305Z,3.50
2023-02-18T13:09:12.592Z,3.40
2023-02-18T13:19:19.788Z,4.20
2023-02-18T13:29:33.841Z,5.10
2023-02-18T13:39:49.289Z,4.30
2023-02-18T13:49:56.638Z,8.60
2023-02-18T14:00:08.126Z,12.90
2023-02-18T14:10:26.806Z,11.00
2023-02-18T14:20:46.971Z,30.20
2023-02-18T14:30:55.031Z,46.00
2023-02-18T14:41:40.483Z,14.70
2023-02-18T14:51:49.433Z,9.40
2023-02-18T15:01:55.491Z,6.40
2023-02-18T15:12:00.144Z,7.40
2023-02-18T15:22:07.632Z,9.40
2023-02-18T15:32:16.457Z,10.90
2023-02-18T15:42:24.796Z,11.00
2023-02-18T15:52:34.676Z,10.90
2023-02-18T16:02:51.578Z,11.40
2023-02-18T16:13:00.707Z,10.50
2023-02-18T16:23:15.077Z,11.20
2023-02-18T16:33:22.390Z,13.40
2023-02-18T16:43:30.241Z,13.30
2023-02-18T16:53:37.551Z,6.10
2023-02-18T17:03:46.300Z,10.20
2023-02-18T17:13:58.334Z,9.50
2023-02-18T17:24:04.409Z,10.10
2023-02-18T17:34:15.696Z,7.60
2023-02-18T17:44:24.844Z,8.20
2023-02-18T17:54:32.160Z,6.00
2023-02-18T18:04:39.351Z,5.00
2023-02-18T18:14:46.509Z,5.00
2023-02-18T18:24:56.353Z,4.70
2023-02-18T18:35:03.643Z,3.90
2023-02-18T18:45:17.328Z,3.90
2023-02-18T18:55:59.645Z,2.80
2023-02-18T19:06:07.651Z,2.50
2023-02-18T19:16:14.496Z,6.00
2023-02-18T19:26:20.899Z,5.40
2023-02-18T19:36:28.200Z,3.80
2023-02-18T19:46:35.754Z,5.70
2023-02-18T19:56:42.866Z,4.50
2023-02-18T20:06:50.162Z,2.70
2023-02-18T20:16:56.342Z,3.50
2023-02-18T20:27:03.947Z,2.20
2023-02-18T20:37:11.144Z,3.40
2023-02-18T20:47:18.824Z,2.50
2023-02-18T20:57:26.418Z,2.50
2023-02-18T21:07:34.360Z,3.20
2023-02-18T21:17:41.537Z,4.60
2023-02-18T21:27:48.588Z,7.10
2023-02-18T21:37:55.927Z,4.30
2023-02-18T21:48:06.346Z,3.60
2023-02-18T21:58:13.638Z,5.30
2023-02-18T22:08:21.425Z,6.80
2023-02-18T22:18:32.120Z,7.40
2023-02-18T22:28:39.923Z,5.50
2023-02-18T22:38:47.213Z,6.40
2023-02-18T22:48:55.954Z,6.90
2023-02-18T22:59:03.068Z,9.20
2023-02-18T23:09:14.457Z,8.10
2023-02-18T23:19:22.133Z,7.10
2023-02-18T23:29:29.253Z,6.20
2023-02-18T23:39:37.021Z,5.40
2023-02-18T23:49:44.141Z,5.20
2023-02-18T23:59:51.034Z,4.30
